»·PEaware :: N973DM KCNO-KSMO

N973DM :: KCNO-KSMO

FLIGHT INFORMATION

Flight Status: Arrived
Operator: Privately registered:
United States
More flights under this callsign
Pilot: Anonymous 1328 (1328)
Aircraft: CIRRUS SR-22
(SR22)
More flights by this aircraft type
Origin: KCNO Chino
United States
Destination: KSMO Santa Monica Mun
United States
More flights between these airports :: More routes between these airports
Route: + PDZ V186 DARTS
File this flight plan on PilotEdge
Remarks: WILL HAVE FULL IFR TO MIN ON ROUTE. REASONABLE SYSTEM FAILURE WELCOME!
Altitude:
(Current/Filed)
7,000ft
Speed:
(Current/Filed)
170kts
Departed: 22-Oct-14 06:52 PM
Arrived: 22-Oct-14 07:36 PM
Distance/Time
Traveled:
38nm/0:44
Distance/Time
To Go:
Arrived

Flight Plot

Page will automatically refresh every two minutes.

Flight plan parsing failed; only flown route is shown


Map Options




Map Legend


Flown Route
Filed Route
Departure Airport
Arrival Airport
Navaid (VOR, NDB)
Fix

Horizontal Profiles

Position Reports

Time Latitude Longitude Heading Altitude Ground
Speed
22-Oct-14 18:33 33.971664 -117.643208 37 652ft 0kts
22-Oct-14 18:34 33.971664 -117.643208 37 652ft 0kts
22-Oct-14 18:35 33.971664 -117.643208 37 652ft 0kts
22-Oct-14 18:36 33.971664 -117.643208 37 652ft 0kts
22-Oct-14 18:37 33.971664 -117.643208 37 652ft 0kts
22-Oct-14 18:38 33.971664 -117.643208 37 652ft 0kts
22-Oct-14 18:39 33.971664 -117.643208 37 652ft 0kts
22-Oct-14 18:40 33.971664 -117.643208 37 652ft 0kts
22-Oct-14 18:41 33.971664 -117.643208 37 652ft 0kts
22-Oct-14 18:42 33.971664 -117.643208 37 652ft 0kts
22-Oct-14 18:43 33.971664 -117.643208 37 652ft 0kts
22-Oct-14 18:44 33.971664 -117.643208 37 652ft 0kts
22-Oct-14 18:45 33.971664 -117.643208 37 652ft 0kts
22-Oct-14 18:46 33.971724 -117.643175 358 652ft 0kts
22-Oct-14 18:47 33.972475 -117.639969 87 652ft 24kts
22-Oct-14 18:48 33.972514 -117.629817 95 652ft 33kts
22-Oct-14 18:49 33.972941 -117.623963 28 652ft 0kts
22-Oct-14 18:50 33.972941 -117.623963 28 652ft 0kts
22-Oct-14 18:51 33.973624 -117.627976 272 652ft 80kts
22-Oct-14 18:52 33.974899 -117.661365 277 1837ft 107kts
22-Oct-14 18:53 33.979983 -117.698299 277 3159ft 109kts
22-Oct-14 18:54 33.987284 -117.737062 303 4387ft 109kts
22-Oct-14 18:55 34.000963 -117.773661 294 5403ft 121kts
22-Oct-14 18:56 34.014506 -117.810780 292 6478ft 122kts
22-Oct-14 18:57 34.027488 -117.849981 290 7177ft 144kts
22-Oct-14 18:58 34.043079 -117.900529 290 7171ft 167kts
22-Oct-14 18:59 34.059342 -117.953969 290 7170ft 170kts
22-Oct-14 19:00 34.076061 -118.008808 287 7002ft 175kts
22-Oct-14 19:01 34.091048 -118.063927 288 6999ft 171kts
22-Oct-14 19:02 34.105995 -118.119354 287 6506ft 172kts
22-Oct-14 19:03 34.120034 -118.171782 287 5495ft 159kts
22-Oct-14 19:04 34.136343 -118.220131 291 4513ft 153kts
22-Oct-14 19:05 34.149382 -118.259646 291 4491ft 106kts
22-Oct-14 19:06 34.152027 -118.287347 210 4483ft 77kts
22-Oct-14 19:07 34.144362 -118.289568 230 5184ft 52kts
22-Oct-14 19:08 34.148993 -118.276951 25 6070ft 71kts
22-Oct-14 19:09 34.159739 -118.281681 198 7103ft 55kts
22-Oct-14 19:10 34.142341 -118.294001 205 7730ft 90kts
22-Oct-14 19:11 34.119524 -118.311573 223 8503ft 102kts
22-Oct-14 19:12 34.098133 -118.337749 230 9172ft 101kts
22-Oct-14 19:13 34.092492 -118.369253 6 9336ft 131kts
22-Oct-14 19:14 34.077804 -118.359118 217 9343ft 98kts
22-Oct-14 19:15 34.061965 -118.384572 239 8214ft 95kts
22-Oct-14 19:16 34.050687 -118.413745 237 6974ft 102kts
22-Oct-14 19:17 34.029045 -118.432560 205 5824ft 96kts
22-Oct-14 19:18 34.013989 -118.447200 174 6388ft 69kts
22-Oct-14 19:19 34.001144 -118.430168 113 7084ft 111kts
22-Oct-14 19:20 33.988413 -118.403895 210 7614ft 101kts
22-Oct-14 19:21 33.968752 -118.419499 207 8078ft 99kts
22-Oct-14 19:22 33.938924 -118.409636 157 8247ft 115kts
22-Oct-14 19:23 33.914865 -118.388984 90 7771ft 129kts
22-Oct-14 19:24 33.931280 -118.365341 64 6933ft 113kts
22-Oct-14 19:25 33.942282 -118.330672 62 5881ft 112kts
22-Oct-14 19:26 33.947273 -118.292875 94 4115ft 173kts
22-Oct-14 19:27 33.950501 -118.248545 87 3979ft 107kts
22-Oct-14 19:28 33.939931 -118.218951 122 3984ft 95kts
22-Oct-14 19:29 33.940663 -118.188596 19 3880ft 124kts
22-Oct-14 19:30 33.947851 -118.220219 247 3890ft 129kts
22-Oct-14 19:31 33.963132 -118.263497 301 2856ft 169kts
22-Oct-14 19:32 33.958389 -118.304010 243 1929ft 128kts
22-Oct-14 19:33 33.941108 -118.347582 253 652ft 96kts
22-Oct-14 19:34 33.937812 -118.378210 258 299ft 95kts
22-Oct-14 19:35 33.936446 -118.399323 279 128ft 17kts

Navigation Log

Ident Type
Flight plan parsing failed, navigation log unavailable